Pilot Magazine UKGA

About You

Log In Register UKGA membership

Flight planning

Flight planning New flightplan NOTAM map LARS map & NOTAMs Danger area, mil. & TRA activations Weather map GPS route download Find waypoints Your waypoints New waypoint

Forums

Forums Currently discussing "Today Loans Do you need a fast loan"

History

Land's End weather

Other items

Articles Events Links News Surveys Tips Other users Feedback UKGA membership About UKGA

Land's End weather

NOT FOR OPERATIONAL USE

TAF

TAF EGHC 211357Z 2115/2118 21009KT 9999 FEW020= TAF EGHE 211357Z 2115/2118 20009KT 9999 FEW010

Previous TAFs

Log in to see Previous TAFs.

METAR

NOTE: This METAR is more than three hours old.

EGHC 211620Z 20009KT 170V230 9999 FEW018 14/12 Q1020
Our last available update is from 21 May, 16:20 UTC. There is a Southerly wind of 9 knots . Wind varying between Southerly and South-westerly directions. Current visibility is 10 km or more. There are a few clouds at 1,800 feet. The temperature is 14°C. The dewpoint is 12°C. The QNH is 1020mb.

Previous METARs

Log in to see previous METARs.

Contribute to UKGA:

Do you have more up-to-date information about Land's End?

Register with UKGA

Registration is quick and easy, and FREE!

Registered users received the following benefits:

  • Remembers "Favourites" Aerodromes
  • Automatic email of new Notams (if desired)
  • Automatic email of relevant events
  • Log Book
  • ... and more!

Click here to register NOW

About You

Log In Register UKGA membership

Airfields

Interactive airfield map Search by name Search by postcode Search by location Fuel prices Pilot reviews Latest
(No favourites selected)

Flight planning

Flight planning New flightplan NOTAM map LARS map & NOTAMs Danger area, mil. & TRA activations Weather map GPS route download Find waypoints Your waypoints New waypoint

Forums

Forums Currently discussing "Today Loans Do you need a fast loan"

History

Land's End weather

Other items

Articles Events Links News Surveys Tips Other users Feedback UKGA membership About UKGA